Terminal Aerodrome Forecast
Issued by NWS

Home | Current Version | Previous Version | Text Only | Print | Product List | Glossary On
Versions: 1 2 3 4 5 6 7 8 9 10 11 12 13 14 15 16 17 18 19 20
736
FTUS43 KAPX 171006 AAA
TAFPLN
TAF AMD
KPLN 171006Z 1710/1806 00000KT P6SM -FZRASNPL BKN040 OVC070
      TEMPO 1710/1714 4SM -FZRAPL OVC025
     FM171400 07007KT 3SM -FZRAPL BR OVC015
     FM171800 06007KT 3SM -FZRAPL BR OVC008
     FM172200 04005KT 5SM -DZ OVC005
     FM180000 02004KT 6SM BR OVC005=

USA.gov is the U.S. government's official web portal to all federal, state and local government web resources and services.